createdAt,value
2023-05-21T00:00:12.213Z,21.70
2023-05-21T00:02:41.038Z,21.70
2023-05-21T00:05:13.775Z,21.70
2023-05-21T00:07:44.124Z,21.60
2023-05-21T00:10:12.531Z,21.60
2023-05-21T00:12:41.690Z,21.60
2023-05-21T00:15:11.036Z,21.60
2023-05-21T00:17:40.102Z,21.60
2023-05-21T00:20:10.071Z,21.60
2023-05-21T00:22:38.099Z,21.60
2023-05-21T00:25:08.471Z,21.50
2023-05-21T00:27:36.427Z,21.50
2023-05-21T00:30:04.895Z,21.50
2023-05-21T00:32:32.916Z,21.50
2023-05-21T00:35:00.903Z,21.50
2023-05-21T00:37:29.738Z,21.50
2023-05-21T00:39:58.528Z,21.50
2023-05-21T00:42:30.594Z,21.40
2023-05-21T00:44:58.589Z,21.40
2023-05-21T00:47:29.600Z,21.40
2023-05-21T00:49:57.794Z,21.40
2023-05-21T00:52:27.013Z,21.40
2023-05-21T00:54:56.096Z,21.40
2023-05-21T00:57:28.035Z,21.30
2023-05-21T00:59:56.425Z,21.30
2023-05-21T01:02:26.099Z,21.30
2023-05-21T01:04:56.289Z,21.30
2023-05-21T01:07:24.284Z,21.30
2023-05-21T01:09:54.187Z,21.30
2023-05-21T01:12:24.367Z,21.30
2023-05-21T01:14:54.355Z,21.20
2023-05-21T01:17:24.371Z,21.20
2023-05-21T01:19:54.684Z,21.20
2023-05-21T01:22:24.870Z,21.20
2023-05-21T01:24:56.286Z,21.20
2023-05-21T01:27:24.388Z,21.20
2023-05-21T01:29:52.337Z,21.10
2023-05-21T01:32:29.271Z,21.10
2023-05-21T01:35:05.422Z,21.10
2023-05-21T01:37:41.650Z,21.10
2023-05-21T01:40:22.751Z,21.00
2023-05-21T01:42:50.807Z,21.10
2023-05-21T01:45:19.558Z,21.00
2023-05-21T01:47:51.201Z,21.00
2023-05-21T01:50:19.963Z,21.00
2023-05-21T01:52:51.753Z,20.90
2023-05-21T01:55:24.729Z,20.90
2023-05-21T01:57:53.806Z,20.90
2023-05-21T02:00:23.383Z,20.90
2023-05-21T02:02:51.845Z,20.90
2023-05-21T02:05:20.086Z,20.90
2023-05-21T02:07:49.795Z,20.90
2023-05-21T02:10:17.926Z,20.80
2023-05-21T02:12:47.418Z,20.80
2023-05-21T02:15:17.881Z,20.80
2023-05-21T02:17:46.504Z,20.80
2023-05-21T02:20:15.606Z,20.80
2023-05-21T02:22:46.419Z,20.70
2023-05-21T02:25:16.752Z,20.70
2023-05-21T02:27:46.575Z,20.70
2023-05-21T02:30:16.743Z,20.60
2023-05-21T02:32:45.121Z,20.70
2023-05-21T02:35:14.341Z,20.60
2023-05-21T02:37:44.248Z,20.60
2023-05-21T02:40:13.577Z,20.60
2023-05-21T02:42:42.622Z,20.60
2023-05-21T02:45:16.544Z,20.60
2023-05-21T02:47:45.150Z,20.50
2023-05-21T02:50:15.464Z,20.50
2023-05-21T02:52:52.488Z,20.50
2023-05-21T02:55:20.986Z,20.50
2023-05-21T02:57:49.234Z,20.50
2023-05-21T03:00:18.987Z,20.40
2023-05-21T03:02:47.298Z,20.40
2023-05-21T03:05:15.321Z,20.40
2023-05-21T03:07:43.622Z,20.40
2023-05-21T03:10:12.274Z,20.40
2023-05-21T03:12:40.357Z,20.40
2023-05-21T03:15:09.851Z,20.40
2023-05-21T03:17:39.473Z,20.30
2023-05-21T03:20:16.007Z,20.30
2023-05-21T03:22:44.441Z,20.30
2023-05-21T03:25:13.655Z,20.30
2023-05-21T03:27:41.984Z,20.30
2023-05-21T03:30:25.017Z,20.30
2023-05-21T03:33:17.063Z,20.20
2023-05-21T03:35:45.540Z,20.20
2023-05-21T03:38:13.669Z,20.20
2023-05-21T03:40:41.645Z,20.20
2023-05-21T03:43:09.936Z,20.20
2023-05-21T03:45:38.335Z,20.20
2023-05-21T03:48:33.824Z,20.20
2023-05-21T03:51:02.828Z,20.20
2023-05-21T03:53:30.780Z,20.20
2023-05-21T03:55:58.714Z,20.20
2023-05-21T03:58:26.794Z,20.10
2023-05-21T04:00:55.388Z,20.10
2023-05-21T04:03:23.802Z,20.10
2023-05-21T04:05:53.634Z,20.10
2023-05-21T04:08:21.699Z,20.10
2023-05-21T04:10:49.673Z,20.10
2023-05-21T04:13:17.663Z,20.10
2023-05-21T04:15:46.688Z,20.10
2023-05-21T04:18:16.460Z,20.10
2023-05-21T04:20:45.201Z,20.10
2023-05-21T04:23:14.591Z,20.10
2023-05-21T04:25:42.688Z,20.20
2023-05-21T04:28:11.081Z,20.10
2023-05-21T04:30:39.116Z,20.20
2023-05-21T04:33:07.334Z,20.20
2023-05-21T04:35:36.062Z,20.20
2023-05-21T04:38:05.689Z,20.20
2023-05-21T04:40:36.697Z,20.20
2023-05-21T04:43:05.016Z,20.20
2023-05-21T04:45:33.591Z,20.30
2023-05-21T04:48:02.920Z,20.30
2023-05-21T04:50:31.677Z,20.30
2023-05-21T04:52:59.770Z,20.30
2023-05-21T04:55:28.936Z,20.30
2023-05-21T04:57:58.387Z,20.30
2023-05-21T05:00:26.554Z,20.40
2023-05-21T05:02:55.087Z,20.40
2023-05-21T05:05:23.214Z,20.40
2023-05-21T05:07:51.292Z,20.40
2023-05-21T05:10:19.272Z,20.40
2023-05-21T05:12:47.315Z,20.40
2023-05-21T05:15:16.932Z,20.40
2023-05-21T05:17:48.194Z,20.50
2023-05-21T05:20:16.318Z,20.50
2023-05-21T05:22:44.297Z,20.50
2023-05-21T05:25:13.728Z,20.50
2023-05-21T05:27:41.831Z,20.50
2023-05-21T05:30:10.974Z,20.60
2023-05-21T05:32:40.428Z,20.60
2023-05-21T05:35:10.561Z,20.60
2023-05-21T05:37:38.657Z,20.60
2023-05-21T05:40:08.873Z,20.60
2023-05-21T05:42:36.856Z,20.70
2023-05-21T05:45:12.807Z,20.70
2023-05-21T05:47:42.821Z,20.70
2023-05-21T05:50:11.945Z,20.70
2023-05-21T05:52:39.958Z,20.70
2023-05-21T05:55:09.825Z,20.70
2023-05-21T05:57:38.514Z,20.80
2023-05-21T06:00:13.597Z,20.80
2023-05-21T06:02:45.253Z,20.80
2023-05-21T06:05:13.545Z,20.80
2023-05-21T06:07:42.141Z,20.90
2023-05-21T06:10:11.216Z,20.90
2023-05-21T06:12:39.181Z,20.90
2023-05-21T06:15:09.320Z,20.90
2023-05-21T06:17:37.714Z,21.00
2023-05-21T06:20:10.260Z,20.90
2023-05-21T06:22:38.635Z,21.00
2023-05-21T06:25:10.697Z,21.00
2023-05-21T06:27:39.493Z,21.10
2023-05-21T06:30:14.225Z,21.10
2023-05-21T06:32:42.283Z,21.10
2023-05-21T06:35:12.101Z,21.20
2023-05-21T06:37:40.405Z,21.20
2023-05-21T06:40:11.061Z,21.30
2023-05-21T06:42:40.626Z,21.30
2023-05-21T06:45:28.570Z,21.30
2023-05-21T06:48:01.082Z,21.40
2023-05-21T06:50:30.538Z,21.40
2023-05-21T06:52:58.565Z,21.50
2023-05-21T06:55:26.541Z,21.60
2023-05-21T06:58:05.084Z,21.60
2023-05-21T07:00:33.807Z,21.70
2023-05-21T07:03:01.997Z,21.80
2023-05-21T07:05:31.700Z,21.80
2023-05-21T07:07:59.642Z,21.90
2023-05-21T07:10:27.616Z,22.00
2023-05-21T07:12:55.608Z,22.00
2023-05-21T07:15:23.762Z,22.10
2023-05-21T07:17:52.025Z,22.20
2023-05-21T07:20:20.689Z,22.20
2023-05-21T07:22:52.563Z,22.30
2023-05-21T07:25:20.976Z,22.40
2023-05-21T07:27:48.904Z,22.50
2023-05-21T07:30:17.005Z,22.60
2023-05-21T07:32:45.069Z,22.60
2023-05-21T07:35:13.147Z,22.70
2023-05-21T07:37:41.704Z,22.80
2023-05-21T07:40:14.007Z,22.90
2023-05-21T07:42:43.509Z,23.00
2023-05-21T07:45:13.188Z,23.00
2023-05-21T07:47:47.054Z,23.10
2023-05-21T07:50:15.753Z,23.20
2023-05-21T07:52:43.937Z,23.20
2023-05-21T07:55:13.752Z,23.30
2023-05-21T07:57:42.492Z,23.30
2023-05-21T08:00:15.402Z,23.40
2023-05-21T08:02:43.746Z,23.40
2023-05-21T08:05:14.077Z,23.50
2023-05-21T08:07:42.110Z,23.50
2023-05-21T08:10:10.874Z,23.60
2023-05-21T08:12:40.268Z,23.60
2023-05-21T08:15:10.216Z,23.70
2023-05-21T08:17:43.656Z,23.70
2023-05-21T08:20:14.458Z,23.80
2023-05-21T08:22:44.731Z,23.80
2023-05-21T08:25:13.169Z,23.90
2023-05-21T08:27:42.951Z,23.90
2023-05-21T08:30:11.960Z,24.00
2023-05-21T08:32:40.120Z,24.10
2023-05-21T08:35:09.427Z,24.10
2023-05-21T08:37:52.252Z,24.20
2023-05-21T08:40:33.420Z,24.20
2023-05-21T08:43:02.753Z,24.30
2023-05-21T08:45:43.973Z,24.40
2023-05-21T08:48:13.233Z,24.50
2023-05-21T08:50:42.649Z,24.50
2023-05-21T08:53:27.387Z,24.60
2023-05-21T08:55:58.079Z,24.70
2023-05-21T08:58:38.344Z,24.70
2023-05-21T09:01:06.866Z,24.80
2023-05-21T09:03:41.860Z,24.80
2023-05-21T09:06:14.045Z,24.90
2023-05-21T09:08:46.110Z,24.90
2023-05-21T09:11:20.247Z,25.00
2023-05-21T09:13:59.121Z,25.10
2023-05-21T09:16:35.121Z,25.10
2023-05-21T09:19:04.776Z,25.20
2023-05-21T09:21:36.801Z,25.20
2023-05-21T09:24:17.442Z,25.30
2023-05-21T09:26:45.627Z,25.30
2023-05-21T09:29:15.597Z,25.40
2023-05-21T09:31:45.835Z,25.40
2023-05-21T09:34:15.008Z,25.50
2023-05-21T09:36:44.765Z,25.50
2023-05-21T09:39:16.474Z,25.50
2023-05-21T09:41:45.373Z,25.60
2023-05-21T09:44:14.929Z,25.60
2023-05-21T09:46:43.551Z,25.60
2023-05-21T09:49:26.304Z,25.60
2023-05-21T09:51:57.155Z,25.70
2023-05-21T09:54:25.955Z,25.70
2023-05-21T09:56:54.269Z,25.80
2023-05-21T09:59:24.314Z,25.80
2023-05-21T10:01:55.341Z,25.80
2023-05-21T10:04:24.644Z,25.80
2023-05-21T10:06:53.761Z,25.90
2023-05-21T10:09:22.644Z,25.90
2023-05-21T10:11:55.342Z,25.90
2023-05-21T10:14:31.902Z,26.00
2023-05-21T10:17:01.697Z,26.00
2023-05-21T10:19:33.779Z,26.10
2023-05-21T10:22:04.373Z,26.10
2023-05-21T10:24:35.154Z,26.10
2023-05-21T10:27:04.835Z,26.20
2023-05-21T10:29:37.844Z,26.20
2023-05-21T10:32:08.208Z,26.20
2023-05-21T10:34:38.866Z,26.20
2023-05-21T10:37:10.333Z,26.30
2023-05-21T10:39:40.649Z,26.30
2023-05-21T10:42:22.089Z,26.30
2023-05-21T10:45:09.333Z,26.30
2023-05-21T10:48:06.535Z,26.30
2023-05-21T10:50:57.236Z,26.40
2023-05-21T10:53:42.353Z,26.40
2023-05-21T10:56:23.902Z,26.40
2023-05-21T10:59:21.793Z,26.40
2023-05-21T11:01:53.594Z,26.50
2023-05-21T11:04:27.832Z,26.50
2023-05-21T11:06:56.408Z,26.60
2023-05-21T11:09:24.652Z,26.60
2023-05-21T11:11:54.012Z,26.60
2023-05-21T11:14:38.219Z,26.60
2023-05-21T11:17:14.387Z,26.60
2023-05-21T11:19:44.233Z,26.70
2023-05-21T11:22:23.945Z,26.70
2023-05-21T11:24:53.652Z,26.80
2023-05-21T11:27:36.464Z,26.80
2023-05-21T11:30:09.076Z,26.80
2023-05-21T11:33:20.290Z,26.80
2023-05-21T11:36:00.045Z,26.80
2023-05-21T11:38:30.930Z,26.90
2023-05-21T11:41:04.624Z,26.90
2023-05-21T11:43:32.576Z,27.00
2023-05-21T11:46:00.954Z,27.00
2023-05-21T11:48:33.158Z,27.00
2023-05-21T11:51:02.182Z,27.00
2023-05-21T11:53:31.361Z,27.00
2023-05-21T11:55:59.902Z,27.00
2023-05-21T11:58:32.134Z,27.10
2023-05-21T12:01:00.108Z,27.10
2023-05-21T12:03:30.409Z,27.10
2023-05-21T12:06:06.661Z,27.10
2023-05-21T12:08:35.849Z,27.10
2023-05-21T12:11:03.818Z,27.20
2023-05-21T12:13:32.172Z,27.20
2023-05-21T12:16:00.744Z,27.20
2023-05-21T12:18:28.924Z,27.20
2023-05-21T12:20:57.270Z,27.30
2023-05-21T12:23:27.073Z,27.30
2023-05-21T12:25:56.269Z,27.30
2023-05-21T12:28:25.517Z,27.30
2023-05-21T12:30:54.010Z,27.30
2023-05-21T12:33:24.417Z,27.30
2023-05-21T12:35:53.261Z,27.40
2023-05-21T12:38:21.241Z,27.40
2023-05-21T12:40:50.546Z,27.40
2023-05-21T12:43:18.474Z,27.40
2023-05-21T12:45:46.527Z,27.40
2023-05-21T12:48:14.472Z,27.40
2023-05-21T12:50:43.984Z,27.40
2023-05-21T12:53:12.904Z,27.50
2023-05-21T12:55:41.332Z,27.40
2023-05-21T12:58:15.059Z,27.40
2023-05-21T13:00:43.823Z,27.50
2023-05-21T13:03:12.415Z,27.50
2023-05-21T13:05:42.208Z,27.40
2023-05-21T13:08:10.680Z,27.50
2023-05-21T13:10:38.997Z,27.50
2023-05-21T13:13:07.209Z,27.50
2023-05-21T13:15:36.435Z,27.50
2023-05-21T13:18:04.397Z,27.50
2023-05-21T13:20:32.396Z,27.50
2023-05-21T13:23:01.679Z,27.50
2023-05-21T13:25:32.533Z,27.50
2023-05-21T13:28:04.982Z,27.50
2023-05-21T13:30:34.227Z,27.50
2023-05-21T13:33:04.173Z,27.50
2023-05-21T13:35:32.288Z,27.50
2023-05-21T13:38:00.351Z,27.60
2023-05-21T13:40:28.459Z,27.60
2023-05-21T13:42:56.450Z,27.60
2023-05-21T13:45:28.992Z,27.60
2023-05-21T13:47:57.393Z,27.60
2023-05-21T13:50:27.046Z,27.50
2023-05-21T13:52:55.115Z,27.60
2023-05-21T13:55:23.390Z,27.60
2023-05-21T13:57:51.348Z,27.60
2023-05-21T14:00:19.311Z,27.60
2023-05-21T14:02:47.420Z,27.60
2023-05-21T14:05:15.588Z,27.70
2023-05-21T14:07:47.484Z,27.70
2023-05-21T14:10:15.752Z,27.70
2023-05-21T14:12:45.932Z,27.70
2023-05-21T14:15:14.044Z,27.70
2023-05-21T14:17:42.528Z,27.70
2023-05-21T14:20:14.495Z,27.70
2023-05-21T14:22:44.406Z,27.80
2023-05-21T14:25:12.538Z,27.80
2023-05-21T14:27:40.517Z,27.80
2023-05-21T14:30:10.261Z,27.80
2023-05-21T14:32:38.210Z,27.80
2023-05-21T14:35:07.206Z,27.80
2023-05-21T14:37:35.831Z,27.80
2023-05-21T14:40:07.877Z,27.80
2023-05-21T14:42:36.726Z,27.80
2023-05-21T14:45:18.145Z,27.90
2023-05-21T14:47:48.677Z,27.90
2023-05-21T14:50:19.573Z,27.90
2023-05-21T14:52:47.531Z,27.90
2023-05-21T14:55:18.428Z,27.90
2023-05-21T14:57:46.366Z,27.90
2023-05-21T15:00:15.533Z,27.90
2023-05-21T15:02:43.684Z,27.90
2023-05-21T15:05:11.845Z,27.90
2023-05-21T15:07:39.846Z,27.90
2023-05-21T15:10:09.951Z,27.90
2023-05-21T15:12:39.751Z,27.90
2023-05-21T15:15:09.057Z,27.90
2023-05-21T15:17:37.306Z,27.90
2023-05-21T15:20:07.218Z,27.80
2023-05-21T15:22:35.332Z,27.90
2023-05-21T15:27:03.858Z,27.80
2023-05-21T15:29:31.926Z,27.80
2023-05-21T15:32:01.122Z,27.80
2023-05-21T15:34:29.178Z,27.90
2023-05-21T15:36:57.898Z,27.90
2023-05-21T15:39:25.898Z,27.90
2023-05-21T15:41:54.601Z,27.90
2023-05-21T15:44:25.534Z,27.90
2023-05-21T15:46:54.812Z,27.90
2023-05-21T15:49:23.039Z,27.90
2023-05-21T15:51:51.622Z,27.90
2023-05-21T15:54:19.593Z,27.90
2023-05-21T15:56:47.713Z,27.90
2023-05-21T15:59:15.744Z,27.80
2023-05-21T16:01:45.334Z,27.80
2023-05-21T16:04:13.420Z,27.80
2023-05-21T16:06:41.401Z,27.80
2023-05-21T16:09:09.418Z,27.80
2023-05-21T16:11:37.361Z,27.80
2023-05-21T16:14:05.353Z,27.80
2023-05-21T16:16:33.354Z,27.80
2023-05-21T16:19:02.764Z,27.80
2023-05-21T16:21:31.857Z,27.80
2023-05-21T16:23:59.856Z,27.80
2023-05-21T16:26:27.939Z,27.80
2023-05-21T16:28:55.924Z,27.70
2023-05-21T16:31:24.138Z,27.70
2023-05-21T16:33:52.101Z,27.70
2023-05-21T16:36:21.458Z,27.70
2023-05-21T16:38:49.430Z,27.70
2023-05-21T16:41:17.615Z,27.70
2023-05-21T16:43:45.724Z,27.70
2023-05-21T16:46:14.397Z,27.70
2023-05-21T16:48:42.767Z,27.70
2023-05-21T16:51:10.755Z,27.60
2023-05-21T16:53:40.064Z,27.60
2023-05-21T16:56:08.483Z,27.60
2023-05-21T16:58:37.007Z,27.60
2023-05-21T17:01:05.164Z,27.60
2023-05-21T17:03:33.446Z,27.60
2023-05-21T17:06:01.397Z,27.60
2023-05-21T17:08:29.366Z,27.50
2023-05-21T17:10:58.899Z,27.50
2023-05-21T17:13:26.916Z,27.50
2023-05-21T17:15:54.886Z,27.50
2023-05-21T17:18:22.903Z,27.50
2023-05-21T17:20:50.849Z,27.50
2023-05-21T17:23:18.983Z,27.40
2023-05-21T17:25:47.032Z,27.40
2023-05-21T17:28:16.269Z,27.40
2023-05-21T17:30:44.230Z,27.40
2023-05-21T17:33:12.357Z,27.40
2023-05-21T17:35:40.441Z,27.40
2023-05-21T17:38:08.529Z,27.30
2023-05-21T17:40:36.887Z,27.30
2023-05-21T17:43:07.116Z,27.30
2023-05-21T17:45:36.875Z,27.30
2023-05-21T17:48:05.745Z,27.30
2023-05-21T17:50:34.225Z,27.30
2023-05-21T17:53:02.313Z,27.30
2023-05-21T17:55:30.527Z,27.30
2023-05-21T17:57:58.874Z,27.30
2023-05-21T18:00:27.641Z,27.30
2023-05-21T18:02:56.964Z,27.20
2023-05-21T18:05:25.020Z,27.20
2023-05-21T18:07:53.029Z,27.20
2023-05-21T18:10:20.973Z,27.20
2023-05-21T18:12:48.933Z,27.10
2023-05-21T18:15:17.313Z,27.10
2023-05-21T18:17:45.535Z,27.10
2023-05-21T18:20:15.555Z,27.10
2023-05-21T18:22:43.500Z,27.10
2023-05-21T18:25:12.242Z,27.10
2023-05-21T18:27:40.202Z,27.10
2023-05-21T18:30:09.722Z,27.00
2023-05-21T18:32:39.337Z,27.00
2023-05-21T18:35:10.650Z,27.00
2023-05-21T18:37:42.907Z,27.00
2023-05-21T18:40:12.861Z,27.00
2023-05-21T18:42:41.235Z,26.90
2023-05-21T18:45:11.166Z,26.90
2023-05-21T18:47:40.524Z,26.90
2023-05-21T18:50:12.266Z,26.90
2023-05-21T18:52:41.654Z,26.90
2023-05-21T18:55:10.939Z,26.80
2023-05-21T18:57:39.017Z,26.80
2023-05-21T19:00:10.678Z,26.80
2023-05-21T19:02:39.705Z,26.80
2023-05-21T19:05:09.499Z,26.80
2023-05-21T19:07:37.704Z,26.70
2023-05-21T19:10:08.803Z,26.70
2023-05-21T19:12:37.667Z,26.70
2023-05-21T19:15:06.959Z,26.70
2023-05-21T19:17:36.256Z,26.70
2023-05-21T19:20:05.349Z,26.60
2023-05-21T19:22:33.612Z,26.60
2023-05-21T19:25:01.769Z,26.60
2023-05-21T19:27:31.116Z,26.60
2023-05-21T19:29:59.065Z,26.50
2023-05-21T19:32:27.202Z,26.50
2023-05-21T19:34:57.391Z,26.50
2023-05-21T19:37:26.115Z,26.50
2023-05-21T19:39:54.106Z,26.50
2023-05-21T19:42:22.198Z,26.50
2023-05-21T19:44:51.765Z,26.40
2023-05-21T19:47:19.735Z,26.40
2023-05-21T19:49:47.617Z,26.40
2023-05-21T19:52:15.674Z,26.40
2023-05-21T19:54:43.762Z,26.40
2023-05-21T19:57:13.403Z,26.30
2023-05-21T19:59:41.759Z,26.30
2023-05-21T20:02:15.952Z,26.20
2023-05-21T20:04:44.683Z,26.20
2023-05-21T20:07:12.632Z,26.20
2023-05-21T20:09:41.279Z,26.20
2023-05-21T20:12:10.126Z,26.20
2023-05-21T20:14:38.222Z,26.10
2023-05-21T20:17:07.051Z,26.10
2023-05-21T20:19:37.906Z,26.10
2023-05-21T20:22:06.613Z,26.10
2023-05-21T20:24:34.656Z,26.10
2023-05-21T20:27:02.628Z,26.00
2023-05-21T20:29:30.795Z,26.00
2023-05-21T20:31:58.971Z,26.00
2023-05-21T20:34:27.875Z,26.00
2023-05-21T20:36:58.197Z,25.90
2023-05-21T20:39:28.601Z,25.90
2023-05-21T20:41:58.122Z,25.90
2023-05-21T20:44:27.569Z,25.80
2023-05-21T20:46:55.768Z,25.80
2023-05-21T20:49:25.901Z,25.80
2023-05-21T20:51:53.925Z,25.70
2023-05-21T20:54:23.408Z,25.70
2023-05-21T20:56:54.766Z,25.70
2023-05-21T20:59:22.836Z,25.60
2023-05-21T21:01:52.599Z,25.60
2023-05-21T21:04:20.790Z,25.60
2023-05-21T21:06:50.279Z,25.60
2023-05-21T21:09:18.362Z,25.50
2023-05-21T21:11:47.725Z,25.50
2023-05-21T21:14:15.886Z,25.50
2023-05-21T21:16:43.969Z,25.50
2023-05-21T21:19:12.242Z,25.40
2023-05-21T21:21:40.335Z,25.40
2023-05-21T21:24:09.142Z,25.40
2023-05-21T21:26:37.155Z,25.40
2023-05-21T21:29:06.458Z,25.40
2023-05-21T21:31:34.566Z,25.40
2023-05-21T21:34:02.591Z,25.30
2023-05-21T21:36:31.219Z,25.30
2023-05-21T21:38:59.286Z,25.30
2023-05-21T21:41:27.312Z,25.30
2023-05-21T21:43:55.424Z,25.30
2023-05-21T21:46:26.217Z,25.20
2023-05-21T21:48:54.279Z,25.20
2023-05-21T21:51:23.582Z,25.20
2023-05-21T21:53:51.844Z,25.20
2023-05-21T21:56:19.881Z,25.20
2023-05-21T21:58:48.063Z,25.20
2023-05-21T22:01:16.026Z,25.20
2023-05-21T22:03:45.356Z,25.10
2023-05-21T22:06:13.265Z,25.10
2023-05-21T22:08:41.345Z,25.10
2023-05-21T22:11:09.952Z,25.10
2023-05-21T22:13:38.411Z,25.10
2023-05-21T22:16:07.682Z,25.10
2023-05-21T22:18:40.413Z,25.10
2023-05-21T22:21:14.267Z,25.00
2023-05-21T22:23:42.552Z,25.00
2023-05-21T22:26:11.081Z,25.00
2023-05-21T22:28:39.053Z,25.00
2023-05-21T22:31:07.288Z,25.00
2023-05-21T22:33:36.631Z,24.90
2023-05-21T22:36:04.911Z,24.90
2023-05-21T22:38:34.420Z,24.90
2023-05-21T22:41:03.509Z,24.90
2023-05-21T22:43:31.726Z,24.90
2023-05-21T22:45:59.980Z,24.80
2023-05-21T22:48:30.497Z,24.80
2023-05-21T22:50:59.025Z,24.80
2023-05-21T22:53:27.222Z,24.80
2023-05-21T22:55:56.522Z,24.70
2023-05-21T22:58:24.605Z,24.70
2023-05-21T23:00:52.574Z,24.70
2023-05-21T23:03:20.676Z,24.60
2023-05-21T23:05:48.731Z,24.70
2023-05-21T23:08:16.781Z,24.60
2023-05-21T23:10:44.789Z,24.60
2023-05-21T23:13:14.056Z,24.60
2023-05-21T23:15:43.650Z,24.60
2023-05-21T23:18:12.456Z,24.50
2023-05-21T23:20:41.564Z,24.50
2023-05-21T23:23:10.334Z,24.50
2023-05-21T23:25:38.476Z,24.50
2023-05-21T23:28:06.799Z,24.40
2023-05-21T23:30:36.512Z,24.40
2023-05-21T23:33:04.794Z,24.40
2023-05-21T23:35:32.788Z,24.30
2023-05-21T23:38:00.909Z,24.30
2023-05-21T23:40:28.871Z,24.30
2023-05-21T23:42:56.908Z,24.30
2023-05-21T23:45:24.995Z,24.30
2023-05-21T23:47:54.697Z,24.20
2023-05-21T23:50:22.955Z,24.20
2023-05-21T23:52:51.210Z,24.20
2023-05-21T23:55:19.172Z,24.10
2023-05-21T23:57:47.203Z,24.10
